Weather at Kidal Airport

Public forecast

Using degrees Celsius for public forecast. Weather courtesy of forecast.io.

Closest aviation weather report (METAR) to Kidal Airport

Report is more than 6 hours old.

Closest report is Bordj Badji Mokhtar Airport, 179.0 nm (331.4 km) N.

2022/11/14 15:00 (retrieved 2 years ago)

DATM 141500Z 04007KT CAVOK 32/// Q1017

Closest aviation forecast (TAF) to Kidal Airport

Forecast is more than 12 hours old.

Closest forecast is Gao Airport, 154.4 nm (286.0 km) SSW.

2023/02/22 18:51 (retrieved 1 year ago)

TAF GAGO 221700Z 2218/2318 06010KT 6000 NSC